TXL weather

Berlin-Tegel Airport
Berlin, Berlin, Germany

Public forecast

Using degrees Celsius for public forecast. Weather courtesy of forecast.io.

Current aviation weather report (METAR) for Berlin-Tegel Airport

Retrieved 2019/11/14 18:20 UTC (0 seconds ago):

EDDT 141820Z 08007KT 050V110 CAVOK 05/03 Q1011 NOSIG

Aviation forecast (TAF) for Berlin-Tegel Airport

Retrieved 2019/11/14 18:27 UTC (0 seconds ago):

TAF EDDT 141700Z 1418/1518 08009KT 9999 FEW010 BECMG 1419/1423 BKN006 TEMPO 1422/1509 BKN004 BECMG 1423/1503 08015G25KT PROB30 TEMPO 1502/1506 3500 BR BECMG 1508/1510 BKN011 BECMG 1511/1515 SCT012 BKN030